Terminal Aerodrome Forecast
Issued by NWS

Home | Current Version | Previous Version | Text Only | Print | Product List | Glossary On
Versions: 1 2 3 4 5 6 7 8 9 10 11 12
000
FTPA31 PHFO 142336
TAFHTO
TAF
PHTO 142336Z 1500/1524 10010KT P6SM SCT025 SCT045
     FM150600 24005KT P6SM VCSH SCT025 BKN045
     FM152100 08008KT P6SM VCSH SCT025 BKN045=

USA.gov is the U.S. government's official web portal to all federal, state and local government web resources and services.